sensor_id;sensor_type;location;lat;lon;timestamp;temperature;humidity
15713;DHT22;7957;51.608;6.916;2022-08-30T00:00:00;18.70;99.90
15713;DHT22;7957;51.608;6.916;2022-08-30T00:02:46;18.70;98.90
15713;DHT22;7957;51.608;6.916;2022-08-30T00:05:15;18.70;99.90
15713;DHT22;7957;51.608;6.916;2022-08-30T00:07:42;18.70;99.40
15713;DHT22;7957;51.608;6.916;2022-08-30T00:10:09;18.70;99.90
15713;DHT22;7957;51.608;6.916;2022-08-30T00:12:37;18.70;99.90
15713;DHT22;7957;51.608;6.916;2022-08-30T00:15:05;18.70;99.90
15713;DHT22;7957;51.608;6.916;2022-08-30T00:17:33;18.70;99.90
15713;DHT22;7957;51.608;6.916;2022-08-30T00:20:02;18.70;99.90
15713;DHT22;7957;51.608;6.916;2022-08-30T00:22:29;18.70;99.90
15713;DHT22;7957;51.608;6.916;2022-08-30T00:24:57;18.70;99.90
15713;DHT22;7957;51.608;6.916;2022-08-30T00:27:25;18.70;99.90
15713;DHT22;7957;51.608;6.916;2022-08-30T00:29:52;18.70;99.90
15713;DHT22;7957;51.608;6.916;2022-08-30T00:32:19;18.70;99.90
15713;DHT22;7957;51.608;6.916;2022-08-30T00:34:46;18.70;99.90
15713;DHT22;7957;51.608;6.916;2022-08-30T00:37:15;18.70;99.90
15713;DHT22;7957;51.608;6.916;2022-08-30T00:39:42;18.60;99.90
15713;DHT22;7957;51.608;6.916;2022-08-30T00:42:10;18.70;99.90
15713;DHT22;7957;51.608;6.916;2022-08-30T00:44:37;18.70;99.90
15713;DHT22;7957;51.608;6.916;2022-08-30T00:47:04;18.70;99.90
15713;DHT22;7957;51.608;6.916;2022-08-30T00:49:32;18.70;99.90
15713;DHT22;7957;51.608;6.916;2022-08-30T00:52:01;18.70;99.90
15713;DHT22;7957;51.608;6.916;2022-08-30T00:54:31;18.70;99.90
15713;DHT22;7957;51.608;6.916;2022-08-30T00:56:59;18.60;99.90
15713;DHT22;7957;51.608;6.916;2022-08-30T00:59:26;18.60;99.90
15713;DHT22;7957;51.608;6.916;2022-08-30T01:01:54;18.60;99.90
15713;DHT22;7957;51.608;6.916;2022-08-30T01:04:21;18.60;99.90
15713;DHT22;7957;51.608;6.916;2022-08-30T01:06:49;18.60;99.90
15713;DHT22;7957;51.608;6.916;2022-08-30T01:09:17;18.60;99.90
15713;DHT22;7957;51.608;6.916;2022-08-30T01:11:45;18.60;99.90
15713;DHT22;7957;51.608;6.916;2022-08-30T01:14:14;18.60;99.90
15713;DHT22;7957;51.608;6.916;2022-08-30T01:16:42;18.50;99.90
15713;DHT22;7957;51.608;6.916;2022-08-30T01:19:18;18.50;99.90
15713;DHT22;7957;51.608;6.916;2022-08-30T01:21:49;18.50;99.90
15713;DHT22;7957;51.608;6.916;2022-08-30T01:24:19;18.50;99.90
15713;DHT22;7957;51.608;6.916;2022-08-30T01:26:47;18.50;99.90
15713;DHT22;7957;51.608;6.916;2022-08-30T01:29:16;18.50;99.90
15713;DHT22;7957;51.608;6.916;2022-08-30T01:31:45;18.50;99.90
15713;DHT22;7957;51.608;6.916;2022-08-30T01:34:12;18.50;99.90
15713;DHT22;7957;51.608;6.916;2022-08-30T01:36:41;18.50;99.90
15713;DHT22;7957;51.608;6.916;2022-08-30T01:39:11;18.60;99.90
15713;DHT22;7957;51.608;6.916;2022-08-30T01:41:40;18.50;99.90
15713;DHT22;7957;51.608;6.916;2022-08-30T01:44:09;18.50;99.90
15713;DHT22;7957;51.608;6.916;2022-08-30T01:46:39;18.50;99.90
15713;DHT22;7957;51.608;6.916;2022-08-30T01:49:10;18.50;99.90
15713;DHT22;7957;51.608;6.916;2022-08-30T01:51:38;18.40;99.90
15713;DHT22;7957;51.608;6.916;2022-08-30T01:54:05;18.50;99.90
15713;DHT22;7957;51.608;6.916;2022-08-30T01:56:32;18.40;99.90
15713;DHT22;7957;51.608;6.916;2022-08-30T01:59:01;18.40;99.90
15713;DHT22;7957;51.608;6.916;2022-08-30T02:01:29;18.40;99.90
15713;DHT22;7957;51.608;6.916;2022-08-30T02:03:56;18.40;99.90
15713;DHT22;7957;51.608;6.916;2022-08-30T02:06:24;18.40;99.90
15713;DHT22;7957;51.608;6.916;2022-08-30T02:08:51;18.40;99.90
15713;DHT22;7957;51.608;6.916;2022-08-30T02:11:19;18.40;99.90
15713;DHT22;7957;51.608;6.916;2022-08-30T02:13:46;18.30;99.90
15713;DHT22;7957;51.608;6.916;2022-08-30T02:16:16;18.30;99.90
15713;DHT22;7957;51.608;6.916;2022-08-30T02:18:44;18.30;99.90
15713;DHT22;7957;51.608;6.916;2022-08-30T02:21:12;18.30;99.90
15713;DHT22;7957;51.608;6.916;2022-08-30T02:23:39;18.30;99.90
15713;DHT22;7957;51.608;6.916;2022-08-30T02:26:06;18.30;99.90
15713;DHT22;7957;51.608;6.916;2022-08-30T02:28:33;18.30;99.90
15713;DHT22;7957;51.608;6.916;2022-08-30T02:31:00;18.30;99.90
15713;DHT22;7957;51.608;6.916;2022-08-30T02:33:29;18.30;99.90
15713;DHT22;7957;51.608;6.916;2022-08-30T02:35:56;18.30;99.90
15713;DHT22;7957;51.608;6.916;2022-08-30T02:38:24;18.30;99.90
15713;DHT22;7957;51.608;6.916;2022-08-30T02:40:51;18.30;99.90
15713;DHT22;7957;51.608;6.916;2022-08-30T02:43:18;18.20;99.90
15713;DHT22;7957;51.608;6.916;2022-08-30T02:45:45;18.30;99.90
15713;DHT22;7957;51.608;6.916;2022-08-30T02:48:12;18.20;99.90
15713;DHT22;7957;51.608;6.916;2022-08-30T02:50:42;18.20;99.90
15713;DHT22;7957;51.608;6.916;2022-08-30T02:53:10;18.20;99.90
15713;DHT22;7957;51.608;6.916;2022-08-30T02:55:37;18.20;99.90
15713;DHT22;7957;51.608;6.916;2022-08-30T02:58:05;18.10;99.90
15713;DHT22;7957;51.608;6.916;2022-08-30T03:00:32;18.10;99.90
15713;DHT22;7957;51.608;6.916;2022-08-30T03:03:00;18.10;99.90
15713;DHT22;7957;51.608;6.916;2022-08-30T03:05:28;18.10;99.90
15713;DHT22;7957;51.608;6.916;2022-08-30T03:07:57;18.10;99.90
15713;DHT22;7957;51.608;6.916;2022-08-30T03:10:25;18.10;99.90
15713;DHT22;7957;51.608;6.916;2022-08-30T03:12:52;18.00;99.90
15713;DHT22;7957;51.608;6.916;2022-08-30T03:15:20;18.10;99.90
15713;DHT22;7957;51.608;6.916;2022-08-30T03:17:50;18.00;99.90
15713;DHT22;7957;51.608;6.916;2022-08-30T03:20:17;18.00;99.90
15713;DHT22;7957;51.608;6.916;2022-08-30T03:22:44;18.00;99.90
15713;DHT22;7957;51.608;6.916;2022-08-30T03:25:13;18.00;99.90
15713;DHT22;7957;51.608;6.916;2022-08-30T03:27:40;17.90;99.90
15713;DHT22;7957;51.608;6.916;2022-08-30T03:30:08;17.90;99.90
15713;DHT22;7957;51.608;6.916;2022-08-30T03:32:37;17.90;99.90
15713;DHT22;7957;51.608;6.916;2022-08-30T03:35:04;17.90;99.90
15713;DHT22;7957;51.608;6.916;2022-08-30T03:37:32;17.90;99.90
15713;DHT22;7957;51.608;6.916;2022-08-30T03:39:59;17.90;99.90
15713;DHT22;7957;51.608;6.916;2022-08-30T03:42:28;17.80;99.90
15713;DHT22;7957;51.608;6.916;2022-08-30T03:44:55;17.90;99.90
15713;DHT22;7957;51.608;6.916;2022-08-30T03:47:22;17.80;99.90
15713;DHT22;7957;51.608;6.916;2022-08-30T03:49:49;17.90;99.90
15713;DHT22;7957;51.608;6.916;2022-08-30T03:52:16;17.90;99.90
15713;DHT22;7957;51.608;6.916;2022-08-30T03:54:43;17.80;99.90
15713;DHT22;7957;51.608;6.916;2022-08-30T03:57:10;17.80;99.90
15713;DHT22;7957;51.608;6.916;2022-08-30T03:59:38;17.80;99.90
15713;DHT22;7957;51.608;6.916;2022-08-30T04:02:05;17.80;99.90
15713;DHT22;7957;51.608;6.916;2022-08-30T04:04:32;17.80;99.90
15713;DHT22;7957;51.608;6.916;2022-08-30T04:07:00;17.80;99.90
15713;DHT22;7957;51.608;6.916;2022-08-30T04:09:26;17.80;99.90
15713;DHT22;7957;51.608;6.916;2022-08-30T04:11:53;17.70;99.90
15713;DHT22;7957;51.608;6.916;2022-08-30T04:14:20;17.70;99.90
15713;DHT22;7957;51.608;6.916;2022-08-30T04:16:49;17.80;99.90
15713;DHT22;7957;51.608;6.916;2022-08-30T04:19:16;17.70;99.90
15713;DHT22;7957;51.608;6.916;2022-08-30T04:21:43;17.70;99.90
15713;DHT22;7957;51.608;6.916;2022-08-30T04:24:10;17.70;99.90
15713;DHT22;7957;51.608;6.916;2022-08-30T04:26:37;17.70;1.00
15713;DHT22;7957;51.608;6.916;2022-08-30T04:29:04;17.70;1.00
15713;DHT22;7957;51.608;6.916;2022-08-30T04:31:31;17.70;1.00
15713;DHT22;7957;51.608;6.916;2022-08-30T04:34:00;17.60;1.00
15713;DHT22;7957;51.608;6.916;2022-08-30T04:36:26;17.60;1.00
15713;DHT22;7957;51.608;6.916;2022-08-30T04:38:54;17.70;1.00
15713;DHT22;7957;51.608;6.916;2022-08-30T04:41:21;17.70;1.00
15713;DHT22;7957;51.608;6.916;2022-08-30T04:43:49;17.60;1.00
15713;DHT22;7957;51.608;6.916;2022-08-30T04:46:16;17.70;1.00
15713;DHT22;7957;51.608;6.916;2022-08-30T04:48:43;17.60;1.00
15713;DHT22;7957;51.608;6.916;2022-08-30T04:51:14;17.60;1.00
15713;DHT22;7957;51.608;6.916;2022-08-30T04:53:41;17.60;1.00
15713;DHT22;7957;51.608;6.916;2022-08-30T04:56:10;17.60;1.00
15713;DHT22;7957;51.608;6.916;2022-08-30T04:58:37;17.60;1.00
15713;DHT22;7957;51.608;6.916;2022-08-30T05:01:07;17.50;1.00
15713;DHT22;7957;51.608;6.916;2022-08-30T05:03:36;17.60;1.00
15713;DHT22;7957;51.608;6.916;2022-08-30T05:06:03;17.60;1.00
15713;DHT22;7957;51.608;6.916;2022-08-30T05:08:32;17.50;1.00
15713;DHT22;7957;51.608;6.916;2022-08-30T05:10:59;17.50;1.00
15713;DHT22;7957;51.608;6.916;2022-08-30T05:13:29;17.50;1.00
15713;DHT22;7957;51.608;6.916;2022-08-30T05:15:55;17.60;1.00
15713;DHT22;7957;51.608;6.916;2022-08-30T05:18:22;17.50;1.00
15713;DHT22;7957;51.608;6.916;2022-08-30T05:20:49;17.50;1.00
15713;DHT22;7957;51.608;6.916;2022-08-30T05:23:16;17.50;1.00
15713;DHT22;7957;51.608;6.916;2022-08-30T05:25:45;17.50;1.00
15713;DHT22;7957;51.608;6.916;2022-08-30T05:28:11;17.50;1.00
15713;DHT22;7957;51.608;6.916;2022-08-30T05:30:38;17.60;1.00
15713;DHT22;7957;51.608;6.916;2022-08-30T05:33:05;17.60;1.00
15713;DHT22;7957;51.608;6.916;2022-08-30T05:35:32;17.60;1.00
15713;DHT22;7957;51.608;6.916;2022-08-30T05:37:59;17.60;1.00
15713;DHT22;7957;51.608;6.916;2022-08-30T05:40:26;17.60;1.00
15713;DHT22;7957;51.608;6.916;2022-08-30T05:42:54;17.60;1.00
15713;DHT22;7957;51.608;6.916;2022-08-30T05:45:22;17.60;1.00
15713;DHT22;7957;51.608;6.916;2022-08-30T05:47:48;17.60;1.00
15713;DHT22;7957;51.608;6.916;2022-08-30T05:50:16;17.60;1.00
15713;DHT22;7957;51.608;6.916;2022-08-30T05:52:42;17.60;1.00
15713;DHT22;7957;51.608;6.916;2022-08-30T05:55:10;17.70;1.00
15713;DHT22;7957;51.608;6.916;2022-08-30T05:57:38;17.60;1.00
15713;DHT22;7957;51.608;6.916;2022-08-30T06:00:09;17.70;1.00
15713;DHT22;7957;51.608;6.916;2022-08-30T06:02:37;17.70;1.00
15713;DHT22;7957;51.608;6.916;2022-08-30T06:05:04;17.70;1.00
15713;DHT22;7957;51.608;6.916;2022-08-30T06:07:31;17.60;1.00
15713;DHT22;7957;51.608;6.916;2022-08-30T06:09:58;17.70;1.00
15713;DHT22;7957;51.608;6.916;2022-08-30T06:12:25;17.70;1.00
15713;DHT22;7957;51.608;6.916;2022-08-30T06:14:52;17.70;1.00
15713;DHT22;7957;51.608;6.916;2022-08-30T06:17:21;17.70;1.00
15713;DHT22;7957;51.608;6.916;2022-08-30T06:19:48;17.70;1.00
15713;DHT22;7957;51.608;6.916;2022-08-30T06:22:14;17.70;1.00
15713;DHT22;7957;51.608;6.916;2022-08-30T06:24:41;17.80;1.00
15713;DHT22;7957;51.608;6.916;2022-08-30T06:27:09;17.80;1.00
15713;DHT22;7957;51.608;6.916;2022-08-30T06:29:36;17.80;1.00
15713;DHT22;7957;51.608;6.916;2022-08-30T06:32:03;17.80;1.00
15713;DHT22;7957;51.608;6.916;2022-08-30T06:34:31;17.90;1.00
15713;DHT22;7957;51.608;6.916;2022-08-30T06:36:58;17.90;1.00
15713;DHT22;7957;51.608;6.916;2022-08-30T06:39:26;17.90;1.00
15713;DHT22;7957;51.608;6.916;2022-08-30T06:41:52;17.90;1.00
15713;DHT22;7957;51.608;6.916;2022-08-30T06:44:20;17.90;1.00
15713;DHT22;7957;51.608;6.916;2022-08-30T06:46:47;18.00;1.00
15713;DHT22;7957;51.608;6.916;2022-08-30T06:49:14;18.00;1.00
15713;DHT22;7957;51.608;6.916;2022-08-30T06:51:43;18.00;1.00
15713;DHT22;7957;51.608;6.916;2022-08-30T06:54:10;18.10;1.00
15713;DHT22;7957;51.608;6.916;2022-08-30T06:56:37;18.10;1.00
15713;DHT22;7957;51.608;6.916;2022-08-30T06:59:04;18.10;1.00
15713;DHT22;7957;51.608;6.916;2022-08-30T07:01:31;18.10;1.00
15713;DHT22;7957;51.608;6.916;2022-08-30T07:03:58;18.10;1.00
15713;DHT22;7957;51.608;6.916;2022-08-30T07:06:27;18.20;1.00
15713;DHT22;7957;51.608;6.916;2022-08-30T07:08:56;18.20;1.00
15713;DHT22;7957;51.608;6.916;2022-08-30T07:11:25;18.20;1.00
15713;DHT22;7957;51.608;6.916;2022-08-30T07:13:53;18.20;1.00
15713;DHT22;7957;51.608;6.916;2022-08-30T07:16:20;18.20;1.00
15713;DHT22;7957;51.608;6.916;2022-08-30T07:18:47;18.20;1.00
15713;DHT22;7957;51.608;6.916;2022-08-30T07:21:18;18.20;1.00
15713;DHT22;7957;51.608;6.916;2022-08-30T07:23:46;18.30;1.00
15713;DHT22;7957;51.608;6.916;2022-08-30T07:26:19;18.30;1.00
15713;DHT22;7957;51.608;6.916;2022-08-30T07:28:46;18.30;1.00
15713;DHT22;7957;51.608;6.916;2022-08-30T07:31:15;18.30;1.00
15713;DHT22;7957;51.608;6.916;2022-08-30T07:33:43;18.30;1.00
15713;DHT22;7957;51.608;6.916;2022-08-30T07:36:11;18.30;1.00
15713;DHT22;7957;51.608;6.916;2022-08-30T07:38:38;18.40;1.00
15713;DHT22;7957;51.608;6.916;2022-08-30T07:41:05;18.50;1.00
15713;DHT22;7957;51.608;6.916;2022-08-30T07:43:35;18.60;1.00
15713;DHT22;7957;51.608;6.916;2022-08-30T07:46:05;18.70;1.00
15713;DHT22;7957;51.608;6.916;2022-08-30T07:48:33;18.90;1.00
15713;DHT22;7957;51.608;6.916;2022-08-30T07:51:00;19.00;1.00
15713;DHT22;7957;51.608;6.916;2022-08-30T07:53:29;19.10;1.00
15713;DHT22;7957;51.608;6.916;2022-08-30T07:55:56;19.30;1.00
15713;DHT22;7957;51.608;6.916;2022-08-30T07:58:23;19.50;99.90
15713;DHT22;7957;51.608;6.916;2022-08-30T08:00:52;19.60;99.90
15713;DHT22;7957;51.608;6.916;2022-08-30T08:03:19;19.70;99.90
15713;DHT22;7957;51.608;6.916;2022-08-30T08:05:46;19.90;99.90
15713;DHT22;7957;51.608;6.916;2022-08-30T08:08:13;20.00;99.90
15713;DHT22;7957;51.608;6.916;2022-08-30T08:10:41;20.00;99.90
15713;DHT22;7957;51.608;6.916;2022-08-30T08:13:08;20.10;99.90
15713;DHT22;7957;51.608;6.916;2022-08-30T08:15:35;20.30;99.90
15713;DHT22;7957;51.608;6.916;2022-08-30T08:18:04;20.30;99.90
15713;DHT22;7957;51.608;6.916;2022-08-30T08:20:32;20.40;99.90
15713;DHT22;7957;51.608;6.916;2022-08-30T08:23:00;20.40;99.90
15713;DHT22;7957;51.608;6.916;2022-08-30T08:25:28;20.50;99.90
15713;DHT22;7957;51.608;6.916;2022-08-30T08:27:55;20.50;99.90
15713;DHT22;7957;51.608;6.916;2022-08-30T08:30:22;20.60;99.90
15713;DHT22;7957;51.608;6.916;2022-08-30T08:32:50;20.60;99.90
15713;DHT22;7957;51.608;6.916;2022-08-30T08:35:18;20.70;99.90
15713;DHT22;7957;51.608;6.916;2022-08-30T08:37:45;20.70;99.90
15713;DHT22;7957;51.608;6.916;2022-08-30T08:40:15;20.80;99.90
15713;DHT22;7957;51.608;6.916;2022-08-30T08:43:08;20.80;98.60
15713;DHT22;7957;51.608;6.916;2022-08-30T08:45:47;20.80;86.80
15713;DHT22;7957;51.608;6.916;2022-08-30T08:48:28;20.90;81.30
15713;DHT22;7957;51.608;6.916;2022-08-30T08:50:58;20.90;75.90
15713;DHT22;7957;51.608;6.916;2022-08-30T08:53:47;20.90;70.90
15713;DHT22;7957;51.608;6.916;2022-08-30T08:56:17;21.00;55.60
15713;DHT22;7957;51.608;6.916;2022-08-30T08:58:48;21.10;38.50
15713;DHT22;7957;51.608;6.916;2022-08-30T09:01:18;21.20;17.00
15713;DHT22;7957;51.608;6.916;2022-08-30T09:03:46;21.20;18.20
15713;DHT22;7957;51.608;6.916;2022-08-30T09:06:30;21.30;1.00
15713;DHT22;7957;51.608;6.916;2022-08-30T09:08:59;21.40;1.00
15713;DHT22;7957;51.608;6.916;2022-08-30T09:11:28;21.40;1.00
15713;DHT22;7957;51.608;6.916;2022-08-30T09:13:57;21.40;1.00
15713;DHT22;7957;51.608;6.916;2022-08-30T09:16:47;21.50;1.00
15713;DHT22;7957;51.608;6.916;2022-08-30T09:19:39;21.50;1.00
15713;DHT22;7957;51.608;6.916;2022-08-30T09:22:35;21.60;1.00
15713;DHT22;7957;51.608;6.916;2022-08-30T09:25:05;21.60;1.00
15713;DHT22;7957;51.608;6.916;2022-08-30T09:27:34;21.60;1.00
15713;DHT22;7957;51.608;6.916;2022-08-30T09:30:08;21.70;1.00
15713;DHT22;7957;51.608;6.916;2022-08-30T09:32:37;21.70;1.00
15713;DHT22;7957;51.608;6.916;2022-08-30T09:35:09;21.70;1.00
15713;DHT22;7957;51.608;6.916;2022-08-30T09:37:43;21.70;1.00
15713;DHT22;7957;51.608;6.916;2022-08-30T09:40:16;21.80;1.00
15713;DHT22;7957;51.608;6.916;2022-08-30T09:42:59;21.80;1.00
15713;DHT22;7957;51.608;6.916;2022-08-30T09:45:30;21.70;1.00
15713;DHT22;7957;51.608;6.916;2022-08-30T09:47:57;21.80;1.00
15713;DHT22;7957;51.608;6.916;2022-08-30T09:50:26;21.80;1.00
15713;DHT22;7957;51.608;6.916;2022-08-30T09:53:00;21.90;1.00
15713;DHT22;7957;51.608;6.916;2022-08-30T09:55:52;21.90;1.00
15713;DHT22;7957;51.608;6.916;2022-08-30T09:58:30;22.00;1.00
15713;DHT22;7957;51.608;6.916;2022-08-30T10:01:04;22.10;1.00
15713;DHT22;7957;51.608;6.916;2022-08-30T10:03:38;22.10;1.00
15713;DHT22;7957;51.608;6.916;2022-08-30T10:06:14;22.20;1.00
15713;DHT22;7957;51.608;6.916;2022-08-30T10:08:52;22.30;1.00
15713;DHT22;7957;51.608;6.916;2022-08-30T10:11:26;22.40;1.00
15713;DHT22;7957;51.608;6.916;2022-08-30T10:14:27;22.50;1.00
15713;DHT22;7957;51.608;6.916;2022-08-30T10:16:59;22.60;1.00
15713;DHT22;7957;51.608;6.916;2022-08-30T10:19:40;22.70;1.00
15713;DHT22;7957;51.608;6.916;2022-08-30T10:22:13;22.80;1.00
15713;DHT22;7957;51.608;6.916;2022-08-30T10:24:45;22.90;1.00
15713;DHT22;7957;51.608;6.916;2022-08-30T10:27:17;23.00;1.00
15713;DHT22;7957;51.608;6.916;2022-08-30T10:29:49;23.00;1.00
15713;DHT22;7957;51.608;6.916;2022-08-30T10:32:21;23.10;1.00
15713;DHT22;7957;51.608;6.916;2022-08-30T10:34:53;23.10;1.00
15713;DHT22;7957;51.608;6.916;2022-08-30T10:37:24;23.10;1.00
15713;DHT22;7957;51.608;6.916;2022-08-30T10:39:57;23.20;1.00
15713;DHT22;7957;51.608;6.916;2022-08-30T10:42:44;23.20;1.00
15713;DHT22;7957;51.608;6.916;2022-08-30T10:45:15;23.20;1.00
15713;DHT22;7957;51.608;6.916;2022-08-30T10:47:48;23.20;1.00
15713;DHT22;7957;51.608;6.916;2022-08-30T10:50:22;23.30;1.00
15713;DHT22;7957;51.608;6.916;2022-08-30T10:52:55;23.40;1.00
15713;DHT22;7957;51.608;6.916;2022-08-30T10:55:28;23.50;1.00
15713;DHT22;7957;51.608;6.916;2022-08-30T10:57:58;23.60;1.00
15713;DHT22;7957;51.608;6.916;2022-08-30T11:00:29;23.80;1.00
15713;DHT22;7957;51.608;6.916;2022-08-30T11:03:22;23.90;1.00
15713;DHT22;7957;51.608;6.916;2022-08-30T11:06:15;24.10;1.00
15713;DHT22;7957;51.608;6.916;2022-08-30T11:09:09;24.30;1.00
15713;DHT22;7957;51.608;6.916;2022-08-30T11:11:55;24.60;1.00
15713;DHT22;7957;51.608;6.916;2022-08-30T11:14:27;24.90;1.00
15713;DHT22;7957;51.608;6.916;2022-08-30T11:16:58;25.10;1.00
15713;DHT22;7957;51.608;6.916;2022-08-30T11:19:28;25.40;1.00
15713;DHT22;7957;51.608;6.916;2022-08-30T11:22:13;25.80;1.00
15713;DHT22;7957;51.608;6.916;2022-08-30T11:25:10;26.00;1.00
15713;DHT22;7957;51.608;6.916;2022-08-30T11:27:45;26.30;1.00
15713;DHT22;7957;51.608;6.916;2022-08-30T11:30:45;26.60;1.00
15713;DHT22;7957;51.608;6.916;2022-08-30T11:33:40;26.80;1.00
15713;DHT22;7957;51.608;6.916;2022-08-30T11:36:09;27.00;1.00
15713;DHT22;7957;51.608;6.916;2022-08-30T11:39:01;27.20;1.00
15713;DHT22;7957;51.608;6.916;2022-08-30T11:41:35;27.50;1.00
15713;DHT22;7957;51.608;6.916;2022-08-30T11:44:28;27.80;1.00
15713;DHT22;7957;51.608;6.916;2022-08-30T11:46:56;28.00;1.00
15713;DHT22;7957;51.608;6.916;2022-08-30T11:49:36;28.20;1.00
15713;DHT22;7957;51.608;6.916;2022-08-30T11:52:19;28.30;1.00
15713;DHT22;7957;51.608;6.916;2022-08-30T11:55:15;28.60;1.00
15713;DHT22;7957;51.608;6.916;2022-08-30T11:57:48;28.80;1.00
15713;DHT22;7957;51.608;6.916;2022-08-30T12:00:29;29.00;1.00
15713;DHT22;7957;51.608;6.916;2022-08-30T12:02:58;29.30;1.00
15713;DHT22;7957;51.608;6.916;2022-08-30T12:08:40;29.50;1.00
15713;DHT22;7957;51.608;6.916;2022-08-30T12:14:47;29.60;1.00
15713;DHT22;7957;51.608;6.916;2022-08-30T12:17:46;29.50;1.00
15713;DHT22;7957;51.608;6.916;2022-08-30T12:20:39;29.50;1.00
15713;DHT22;7957;51.608;6.916;2022-08-30T12:23:16;29.60;1.00
15713;DHT22;7957;51.608;6.916;2022-08-30T12:25:43;29.60;1.00
15713;DHT22;7957;51.608;6.916;2022-08-30T12:28:14;29.50;1.00
15713;DHT22;7957;51.608;6.916;2022-08-30T12:30:42;29.50;1.00
15713;DHT22;7957;51.608;6.916;2022-08-30T12:33:13;29.50;99.90
15713;DHT22;7957;51.608;6.916;2022-08-30T12:35:41;29.50;99.90
15713;DHT22;7957;51.608;6.916;2022-08-30T12:38:13;29.50;99.90
15713;DHT22;7957;51.608;6.916;2022-08-30T12:40:48;29.40;99.90
15713;DHT22;7957;51.608;6.916;2022-08-30T12:43:22;29.30;99.90
15713;DHT22;7957;51.608;6.916;2022-08-30T12:45:50;29.30;99.90
15713;DHT22;7957;51.608;6.916;2022-08-30T12:48:21;29.20;99.90
15713;DHT22;7957;51.608;6.916;2022-08-30T12:50:51;29.20;99.90
15713;DHT22;7957;51.608;6.916;2022-08-30T12:53:26;29.10;1.00
15713;DHT22;7957;51.608;6.916;2022-08-30T12:55:56;29.00;99.90
15713;DHT22;7957;51.608;6.916;2022-08-30T12:58:36;28.90;99.90
15713;DHT22;7957;51.608;6.916;2022-08-30T13:01:22;28.80;99.90
15713;DHT22;7957;51.608;6.916;2022-08-30T13:04:02;28.80;99.90
15713;DHT22;7957;51.608;6.916;2022-08-30T13:06:49;28.60;99.90
15713;DHT22;7957;51.608;6.916;2022-08-30T13:09:24;28.60;99.90
15713;DHT22;7957;51.608;6.916;2022-08-30T13:11:53;28.50;99.90
15713;DHT22;7957;51.608;6.916;2022-08-30T13:14:32;28.30;99.90
15713;DHT22;7957;51.608;6.916;2022-08-30T13:17:07;28.30;99.90
15713;DHT22;7957;51.608;6.916;2022-08-30T13:19:38;28.20;99.90
15713;DHT22;7957;51.608;6.916;2022-08-30T13:22:25;28.10;99.90
15713;DHT22;7957;51.608;6.916;2022-08-30T13:24:53;28.00;99.90
15713;DHT22;7957;51.608;6.916;2022-08-30T13:27:20;27.90;99.90
15713;DHT22;7957;51.608;6.916;2022-08-30T13:29:47;27.90;99.90
15713;DHT22;7957;51.608;6.916;2022-08-30T13:32:15;27.80;99.90
15713;DHT22;7957;51.608;6.916;2022-08-30T13:34:44;27.70;1.00
15713;DHT22;7957;51.608;6.916;2022-08-30T13:37:14;27.50;99.90
15713;DHT22;7957;51.608;6.916;2022-08-30T13:39:43;27.50;99.90
15713;DHT22;7957;51.608;6.916;2022-08-30T13:42:09;27.40;99.90
15713;DHT22;7957;51.608;6.916;2022-08-30T13:44:36;27.30;99.90
15713;DHT22;7957;51.608;6.916;2022-08-30T13:47:04;27.30;99.90
15713;DHT22;7957;51.608;6.916;2022-08-30T13:49:32;27.20;99.90
15713;DHT22;7957;51.608;6.916;2022-08-30T13:52:02;27.10;99.90
15713;DHT22;7957;51.608;6.916;2022-08-30T13:54:29;27.00;99.90
15713;DHT22;7957;51.608;6.916;2022-08-30T13:56:56;27.00;99.90
15713;DHT22;7957;51.608;6.916;2022-08-30T13:59:24;26.90;99.90
15713;DHT22;7957;51.608;6.916;2022-08-30T14:01:52;26.80;99.90
15713;DHT22;7957;51.608;6.916;2022-08-30T14:04:20;26.80;99.90
15713;DHT22;7957;51.608;6.916;2022-08-30T14:06:46;26.70;99.90
15713;DHT22;7957;51.608;6.916;2022-08-30T14:09:15;26.70;99.90
15713;DHT22;7957;51.608;6.916;2022-08-30T14:11:42;26.60;99.90
15713;DHT22;7957;51.608;6.916;2022-08-30T14:14:09;26.50;99.90
15713;DHT22;7957;51.608;6.916;2022-08-30T14:16:38;26.50;99.90
15713;DHT22;7957;51.608;6.916;2022-08-30T14:19:06;26.40;99.90
15713;DHT22;7957;51.608;6.916;2022-08-30T14:21:33;26.30;99.90
15713;DHT22;7957;51.608;6.916;2022-08-30T14:24:01;26.30;99.90
15713;DHT22;7957;51.608;6.916;2022-08-30T14:26:33;26.30;99.90
15713;DHT22;7957;51.608;6.916;2022-08-30T14:29:01;26.20;99.90
15713;DHT22;7957;51.608;6.916;2022-08-30T14:31:28;26.10;99.90
15713;DHT22;7957;51.608;6.916;2022-08-30T14:33:56;26.10;99.90
15713;DHT22;7957;51.608;6.916;2022-08-30T14:36:22;26.00;99.90
15713;DHT22;7957;51.608;6.916;2022-08-30T14:38:49;26.00;99.90
15713;DHT22;7957;51.608;6.916;2022-08-30T14:41:16;26.00;99.90
15713;DHT22;7957;51.608;6.916;2022-08-30T14:43:45;26.00;99.90
15713;DHT22;7957;51.608;6.916;2022-08-30T14:46:12;25.90;99.90
15713;DHT22;7957;51.608;6.916;2022-08-30T14:48:38;25.80;99.90
15713;DHT22;7957;51.608;6.916;2022-08-30T14:51:11;25.80;99.90
15713;DHT22;7957;51.608;6.916;2022-08-30T14:53:39;25.70;99.90
15713;DHT22;7957;51.608;6.916;2022-08-30T14:56:09;25.60;99.90
15713;DHT22;7957;51.608;6.916;2022-08-30T14:58:36;25.60;99.90
15713;DHT22;7957;51.608;6.916;2022-08-30T15:01:07;25.50;99.90
15713;DHT22;7957;51.608;6.916;2022-08-30T15:03:34;25.50;99.90
15713;DHT22;7957;51.608;6.916;2022-08-30T15:06:01;25.50;99.90
15713;DHT22;7957;51.608;6.916;2022-08-30T15:08:28;25.50;99.90
15713;DHT22;7957;51.608;6.916;2022-08-30T15:10:55;25.40;99.90
15713;DHT22;7957;51.608;6.916;2022-08-30T15:13:23;25.40;99.90
15713;DHT22;7957;51.608;6.916;2022-08-30T15:15:50;25.40;99.90
15713;DHT22;7957;51.608;6.916;2022-08-30T15:18:18;25.30;99.90
15713;DHT22;7957;51.608;6.916;2022-08-30T15:20:46;25.40;99.90
15713;DHT22;7957;51.608;6.916;2022-08-30T15:23:14;25.40;99.90
15713;DHT22;7957;51.608;6.916;2022-08-30T15:25:41;25.30;99.90
15713;DHT22;7957;51.608;6.916;2022-08-30T15:28:08;25.30;99.90
15713;DHT22;7957;51.608;6.916;2022-08-30T15:30:36;25.30;99.90
15713;DHT22;7957;51.608;6.916;2022-08-30T15:33:03;25.30;99.90
15713;DHT22;7957;51.608;6.916;2022-08-30T15:35:31;25.30;99.90
15713;DHT22;7957;51.608;6.916;2022-08-30T15:37:58;25.20;99.90
15713;DHT22;7957;51.608;6.916;2022-08-30T15:40:25;25.20;99.90
15713;DHT22;7957;51.608;6.916;2022-08-30T15:42:54;25.10;99.90
15713;DHT22;7957;51.608;6.916;2022-08-30T15:45:21;25.10;99.90
15713;DHT22;7957;51.608;6.916;2022-08-30T15:47:48;25.00;1.00
15713;DHT22;7957;51.608;6.916;2022-08-30T15:50:15;25.00;99.90
15713;DHT22;7957;51.608;6.916;2022-08-30T15:52:43;25.00;99.90
15713;DHT22;7957;51.608;6.916;2022-08-30T15:55:10;25.00;99.90
15713;DHT22;7957;51.608;6.916;2022-08-30T15:57:37;24.90;99.90
15713;DHT22;7957;51.608;6.916;2022-08-30T16:00:05;24.90;99.90
15713;DHT22;7957;51.608;6.916;2022-08-30T16:02:33;24.90;99.90
15713;DHT22;7957;51.608;6.916;2022-08-30T16:05:00;24.90;99.90
15713;DHT22;7957;51.608;6.916;2022-08-30T16:07:28;24.90;99.90
15713;DHT22;7957;51.608;6.916;2022-08-30T16:09:58;24.80;99.90
15713;DHT22;7957;51.608;6.916;2022-08-30T16:12:25;24.80;99.90
15713;DHT22;7957;51.608;6.916;2022-08-30T16:14:52;24.80;99.90
15713;DHT22;7957;51.608;6.916;2022-08-30T16:17:19;24.70;99.90